Unlu-5 — TCON5 — position and weather

sailwx.info

Track history (hours):
 
Tides and Currents Weather Stations Pressure Air Temp Water Temp Dewpoint Dewpoint Depression Visibility Wind Speed Wind Dir Waves Ship Positions

Unlu-5

Last reported at 2014-Oct-19 01:32 UTC. Time now 2014-Oct-23 06:47 UTC.
Position N 35°08' E 023°35'.

Length 99 m; draft 6.2 m.

Type: Cargo ship. MMSI: 271000854.

Date/timePositionNaut miles runAvg speedWind from/ knotsBaromVisibWave heightAir tempDewpointWater temp
2014-Oct-19 01:32N 35°08' E 023°35'9 7.8
2014-Oct-19 00:25N 35°10' E 023°25'10 7.5
2014-Oct-18 23:03N 35°11' E 023°12'6 7.0
2014-Oct-18 22:10N 35°12' E 023°05'166 8.0
2014-Oct-18 01:27N 35°29' E 019°43'184 8.3
2014-Oct-17 03:18N 35°47' E 015°58'6 7.8
2014-Oct-17 02:33N 35°47' E 015°51'8 7.6
2014-Oct-17 01:33N 35°47' E 015°41'7 7.5
2014-Oct-17 00:33N 35°49' E 015°32'7 7.3
2014-Oct-16 23:33N 35°50' E 015°23'8 7.6
2014-Oct-16 22:33N 35°51' E 015°14'8 7.6
2014-Oct-16 21:33N 35°52' E 015°05'8 7.7
2014-Oct-16 20:33N 35°53' E 014°55'7 7.5
2014-Oct-16 19:33N 35°53' E 014°46'0 0.2
2014-Oct-16 18:31N 35°53' E 014°46'0 0.0
2014-Oct-16 17:31N 35°53' E 014°46'0 0.0
2014-Oct-16 16:32N 35°53' E 014°46'0 0.0
2014-Oct-16 15:32N 35°53' E 014°46'0 0.0
2014-Oct-16 13:32N 35°53' E 014°46'0 0.0
2014-Oct-16 12:08N 35°53' E 014°46'0 0.0
2014-Oct-16 11:32N 35°53' E 014°46'0 0.0
2014-Oct-16 10:23N 35°53' E 014°46'0 0.0
2014-Oct-16 09:20N 35°53' E 014°46'4 0.2
2014-Oct-15 13:32N 35°56' E 014°50'0 0.0
2014-Oct-15 12:14N 35°56' E 014°50'0 0.0
2014-Oct-15 11:29N 35°56' E 014°50'0 0.0
2014-Oct-15 10:32N 35°56' E 014°50'0 0.0
2014-Oct-15 09:32N 35°56' E 014°50'0 0.0
2014-Oct-15 08:32N 35°56' E 014°50'0 0.0
2014-Oct-15 07:31N 35°56' E 014°50'0 0.0
2014-Oct-15 06:31N 35°56' E 014°50'0 0.0
2014-Oct-15 05:25N 35°56' E 014°50'4 4.5
2014-Oct-15 04:33N 35°60' E 014°48'8 6.9
2014-Oct-15 03:27N 36°07' E 014°52'7 7.2
2014-Oct-15 02:32N 36°12' E 014°56'7 7.5
2014-Oct-15 01:33N 36°18' E 015°01'8 7.4
2014-Oct-15 00:32N 36°25' E 015°07'7 7.4
2014-Oct-14 23:32N 36°31' E 015°11'  
2014-Oct-11 21:33N 36°33' E 015°09'8 8.5
2014-Oct-11 20:33N 36°35' E 014°59'11 8.5
2014-Oct-11 19:19N 36°37' E 014°46'6 8.3
2014-Oct-11 18:33N 36°38' E 014°39'9 8.6
2014-Oct-11 17:33N 36°41' E 014°28'9 8.8
2014-Oct-11 16:33N 36°45' E 014°19'9 8.9
2014-Oct-11 15:33N 36°49' E 014°09'9 8.9
2014-Oct-11 14:33N 36°54' E 013°60'9 8.8
2014-Oct-11 13:33N 36°58' E 013°50'9 9.0
2014-Oct-11 12:33N 37°02' E 013°40'179 7.6
2014-Oct-10 13:05N 38°19' E 010°16'4 7.8
2014-Oct-10 12:31N 38°20' E 010°11'8 7.8
2014-Oct-10 11:33N 38°22' E 010°02'8 7.8
2014-Oct-10 10:32N 38°23' E 009°52'8 8.0
2014-Oct-10 09:33N 38°25' E 009°42'8 8.1
2014-Oct-10 08:32N 38°27' E 009°31'8 8.1
2014-Oct-10 07:32N 38°28' E 009°21'8 8.2
2014-Oct-10 06:33N 38°30' E 009°11'9 8.1
2014-Oct-10 05:27N 38°33' E 009°01'7 8.1
2014-Oct-10 04:33N 38°36' E 008°52'8 8.2
2014-Oct-10 03:33N 38°39' E 008°42'8 8.4
2014-Oct-10 02:32N 38°42' E 008°32'8 8.3
2014-Oct-10 01:33N 38°45' E 008°22'17 8.0
2014-Oct-09 23:25N 38°59' E 008°09'8 9.0
2014-Oct-09 22:32N 39°06' E 008°06'9 9.2
2014-Oct-09 21:33N 39°15' E 008°07'10 9.5
2014-Oct-09 20:32N 39°24' E 008°11'20 9.2
2014-Oct-09 18:19N 39°44' E 008°20'8 8.1
2014-Oct-09 17:21N 39°50' E 008°26'5 5.9
2014-Oct-09 16:33N 39°53' E 008°31'2 2.2
2014-Oct-09 15:28N 39°52' E 008°33'0 0.0
2014-Oct-09 07:22N 39°52' E 008°33'0 0.0
2014-Oct-09 06:31N 39°52' E 008°33'0 0.0
2014-Oct-09 05:31N 39°52' E 008°33'0 0.0
2014-Oct-09 04:22N 39°52' E 008°33'0 0.0
2014-Oct-09 03:28N 39°52' E 008°33'0 0.0
2014-Oct-09 02:31N 39°52' E 008°33'  
Track history (hours):
 
Tides and Currents Weather Stations Pressure Air Temp Water Temp Dewpoint Dewpoint Depression Visibility Wind Speed Wind Dir Waves Ship Positions

Unlu-5

Last reported at 2014-Oct-19 01:32 UTC. Time now 2014-Oct-23 06:47 UTC.
Position N 35°08' E 023°35'.

Length 99 m; draft 6.2 m.

Type: Cargo ship. MMSI: 271000854.

Date/timePositionNaut miles runAvg speedWind from/ knotsBaromVisibWave heightAir tempDewpointWater temp
2014-Oct-19 01:32N 35°08' E 023°35'9 7.8
2014-Oct-19 00:25N 35°10' E 023°25'10 7.5
2014-Oct-18 23:03N 35°11' E 023°12'6 7.0
2014-Oct-18 22:10N 35°12' E 023°05'166 8.0
2014-Oct-18 01:27N 35°29' E 019°43'184 8.3
2014-Oct-17 03:18N 35°47' E 015°58'6 7.8
2014-Oct-17 02:33N 35°47' E 015°51'8 7.6
2014-Oct-17 01:33N 35°47' E 015°41'7 7.5
2014-Oct-17 00:33N 35°49' E 015°32'7 7.3
2014-Oct-16 23:33N 35°50' E 015°23'8 7.6
2014-Oct-16 22:33N 35°51' E 015°14'8 7.6
2014-Oct-16 21:33N 35°52' E 015°05'8 7.7
2014-Oct-16 20:33N 35°53' E 014°55'7 7.5
2014-Oct-16 19:33N 35°53' E 014°46'0 0.2
2014-Oct-16 18:31N 35°53' E 014°46'0 0.0
2014-Oct-16 17:31N 35°53' E 014°46'0 0.0
2014-Oct-16 16:32N 35°53' E 014°46'0 0.0
2014-Oct-16 15:32N 35°53' E 014°46'0 0.0
2014-Oct-16 13:32N 35°53' E 014°46'0 0.0
2014-Oct-16 12:08N 35°53' E 014°46'0 0.0
2014-Oct-16 11:32N 35°53' E 014°46'0 0.0
2014-Oct-16 10:23N 35°53' E 014°46'0 0.0
2014-Oct-16 09:20N 35°53' E 014°46'4 0.2
2014-Oct-15 13:32N 35°56' E 014°50'0 0.0
2014-Oct-15 12:14N 35°56' E 014°50'0 0.0
2014-Oct-15 11:29N 35°56' E 014°50'0 0.0
2014-Oct-15 10:32N 35°56' E 014°50'0 0.0
2014-Oct-15 09:32N 35°56' E 014°50'0 0.0
2014-Oct-15 08:32N 35°56' E 014°50'0 0.0
2014-Oct-15 07:31N 35°56' E 014°50'0 0.0
2014-Oct-15 06:31N 35°56' E 014°50'0 0.0
2014-Oct-15 05:25N 35°56' E 014°50'4 4.5
2014-Oct-15 04:33N 35°60' E 014°48'8 6.9
2014-Oct-15 03:27N 36°07' E 014°52'7 7.2
2014-Oct-15 02:32N 36°12' E 014°56'7 7.5
2014-Oct-15 01:33N 36°18' E 015°01'8 7.4
2014-Oct-15 00:32N 36°25' E 015°07'7 7.4
2014-Oct-14 23:32N 36°31' E 015°11'  
2014-Oct-11 21:33N 36°33' E 015°09'8 8.5
2014-Oct-11 20:33N 36°35' E 014°59'11 8.5
2014-Oct-11 19:19N 36°37' E 014°46'6 8.3
2014-Oct-11 18:33N 36°38' E 014°39'9 8.6
2014-Oct-11 17:33N 36°41' E 014°28'9 8.8
2014-Oct-11 16:33N 36°45' E 014°19'9 8.9
2014-Oct-11 15:33N 36°49' E 014°09'9 8.9
2014-Oct-11 14:33N 36°54' E 013°60'9 8.8
2014-Oct-11 13:33N 36°58' E 013°50'9 9.0
2014-Oct-11 12:33N 37°02' E 013°40'179 7.6
2014-Oct-10 13:05N 38°19' E 010°16'4 7.8
2014-Oct-10 12:31N 38°20' E 010°11'8 7.8
2014-Oct-10 11:33N 38°22' E 010°02'8 7.8
2014-Oct-10 10:32N 38°23' E 009°52'8 8.0
2014-Oct-10 09:33N 38°25' E 009°42'8 8.1
2014-Oct-10 08:32N 38°27' E 009°31'8 8.1
2014-Oct-10 07:32N 38°28' E 009°21'8 8.2
2014-Oct-10 06:33N 38°30' E 009°11'9 8.1
2014-Oct-10 05:27N 38°33' E 009°01'7 8.1
2014-Oct-10 04:33N 38°36' E 008°52'8 8.2
2014-Oct-10 03:33N 38°39' E 008°42'8 8.4
2014-Oct-10 02:32N 38°42' E 008°32'8 8.3
2014-Oct-10 01:33N 38°45' E 008°22'17 8.0
2014-Oct-09 23:25N 38°59' E 008°09'8 9.0
2014-Oct-09 22:32N 39°06' E 008°06'9 9.2
2014-Oct-09 21:33N 39°15' E 008°07'10 9.5
2014-Oct-09 20:32N 39°24' E 008°11'20 9.2
2014-Oct-09 18:19N 39°44' E 008°20'8 8.1
2014-Oct-09 17:21N 39°50' E 008°26'5 5.9
2014-Oct-09 16:33N 39°53' E 008°31'2 2.2
2014-Oct-09 15:28N 39°52' E 008°33'0 0.0
2014-Oct-09 07:22N 39°52' E 008°33'0 0.0
2014-Oct-09 06:31N 39°52' E 008°33'0 0.0
2014-Oct-09 05:31N 39°52' E 008°33'0 0.0
2014-Oct-09 04:22N 39°52' E 008°33'0 0.0
2014-Oct-09 03:28N 39°52' E 008°33'0 0.0
2014-Oct-09 02:31N 39°52' E 008°33'  

Dump ship's entire track history